AUA264 EDDS-LOWW
Flight info
| Callsign | AUA264 |
|---|---|
| Flight time | 1h 0m |
| Altitude | 31000 |
| Route | ABTAL4H/07 ABTAL L173 RIXED Y161 RIDAR Z98 MIQ L605 BIBAG Q104 AKIMA DCT MASUR MASUR3W |
| Aircraft | A320/M-SDE3FGHIRWY/LB1 |
Departure
| Time | 2026-04-24 07:10 |
|---|---|
| Airport | Stuttgart Airport (EDDS) |
Arrival
| Time | 2026-04-24 08:11 |
|---|---|
| Airport | Vienna International Airport (LOWW) |
| Time | Latitude | Longitude | Altitude | Speed | Heading |
|---|---|---|---|---|---|
| 2026-04-24 06:33 | 48.68924 | 9.19582 | 1286 ft | 0 kts | 344° |
| 2026-04-24 07:01 | 48.68922 | 9.19583 | 1285 ft | 2 kts | 344° |
| 2026-04-24 07:01 | 48.68906 | 9.19589 | 1289 ft | 2 kts | 347° |
| 2026-04-24 07:01 | 48.68890 | 9.19594 | 1289 ft | 2 kts | 350° |
| 2026-04-24 07:01 | 48.68874 | 9.19597 | 1290 ft | 2 kts | 358° |
| 2026-04-24 07:02 | 48.68858 | 9.19596 | 1288 ft | 2 kts | 18° |
| 2026-04-24 07:02 | 48.68843 | 9.19584 | 1289 ft | 2 kts | 65° |
| 2026-04-24 07:02 | 48.68840 | 9.19572 | 1288 ft | 0 kts | 76° |
| 2026-04-24 07:06 | 48.68846 | 9.19606 | 1287 ft | 7 kts | 75° |
| 2026-04-24 07:06 | 48.68859 | 9.19670 | 1285 ft | 6 kts | 72° |
| 2026-04-24 07:07 | 48.68870 | 9.19726 | 1285 ft | 8 kts | 74° |
| 2026-04-24 07:07 | 48.68888 | 9.19827 | 1285 ft | 9 kts | 85° |
| 2026-04-24 07:07 | 48.68794 | 9.19939 | 1285 ft | 10 kts | 151° |
| 2026-04-24 07:08 | 48.68724 | 9.19970 | 1286 ft | 10 kts | 165° |
| 2026-04-24 07:08 | 48.68650 | 9.20004 | 1286 ft | 14 kts | 154° |
| 2026-04-24 07:08 | 48.68600 | 9.20120 | 1287 ft | 14 kts | 95° |
| 2026-04-24 07:08 | 48.68617 | 9.20240 | 1287 ft | 0 kts | 74° |
| 2026-04-24 07:09 | 48.68675 | 9.20544 | 1288 ft | 68 kts | 74° |
| 2026-04-24 07:09 | 48.68863 | 9.21544 | 1288 ft | 127 kts | 74° |
| 2026-04-24 07:10 | 48.69150 | 9.23050 | 1412 ft | 161 kts | 74° |
| 2026-04-24 07:10 | 48.69441 | 9.24665 | 2032 ft | 162 kts | 74° |
| 2026-04-24 07:10 | 48.69749 | 9.26320 | 2643 ft | 168 kts | 73° |
| 2026-04-24 07:10 | 48.70096 | 9.28128 | 2926 ft | 191 kts | 72° |
| 2026-04-24 07:11 | 48.70497 | 9.30182 | 3206 ft | 216 kts | 72° |
| 2026-04-24 07:11 | 48.70949 | 9.32486 | 3623 ft | 240 kts | 72° |
| 2026-04-24 07:11 | 48.71445 | 9.35030 | 4157 ft | 260 kts | 72° |
| 2026-04-24 07:11 | 48.71951 | 9.37695 | 4999 ft | 265 kts | 72° |
| 2026-04-24 07:12 | 48.72458 | 9.40402 | 5917 ft | 268 kts | 72° |
| 2026-04-24 07:12 | 48.72967 | 9.43133 | 6812 ft | 271 kts | 72° |
| 2026-04-24 07:12 | 48.73484 | 9.45897 | 7643 ft | 275 kts | 72° |
| 2026-04-24 07:12 | 48.74010 | 9.48704 | 8488 ft | 279 kts | 72° |
| 2026-04-24 07:13 | 48.74544 | 9.51544 | 9325 ft | 283 kts | 71° |
| 2026-04-24 07:13 | 48.75089 | 9.54435 | 10147 ft | 287 kts | 71° |
| 2026-04-24 07:13 | 48.75648 | 9.57411 | 10616 ft | 304 kts | 72° |
| 2026-04-24 07:13 | 48.76250 | 9.60613 | 10853 ft | 328 kts | 72° |
| 2026-04-24 07:14 | 48.76894 | 9.64045 | 11147 ft | 346 kts | 72° |
| 2026-04-24 07:14 | 48.77557 | 9.67597 | 11757 ft | 353 kts | 72° |
| 2026-04-24 07:14 | 48.78225 | 9.71209 | 12474 ft | 357 kts | 72° |
| 2026-04-24 07:14 | 48.78894 | 9.74848 | 13196 ft | 361 kts | 72° |
| 2026-04-24 07:15 | 48.79572 | 9.78538 | 13895 ft | 364 kts | 72° |
| 2026-04-24 07:15 | 48.80257 | 9.82251 | 14548 ft | 367 kts | 72° |
| 2026-04-24 07:15 | 48.80940 | 9.85947 | 15173 ft | 370 kts | 72° |
| 2026-04-24 07:15 | 48.81632 | 9.89716 | 15801 ft | 373 kts | 72° |
| 2026-04-24 07:16 | 48.82329 | 9.93528 | 16436 ft | 376 kts | 72° |
| 2026-04-24 07:16 | 48.83033 | 9.97361 | 17066 ft | 378 kts | 72° |
| 2026-04-24 07:16 | 48.83741 | 10.01225 | 17683 ft | 381 kts | 73° |
| 2026-04-24 07:16 | 48.84455 | 10.05119 | 18308 ft | 384 kts | 73° |
| 2026-04-24 07:17 | 48.85072 | 10.09086 | 18868 ft | 389 kts | 80° |
| 2026-04-24 07:17 | 48.85227 | 10.13204 | 19419 ft | 394 kts | 90° |
| 2026-04-24 07:17 | 48.84945 | 10.17351 | 19966 ft | 398 kts | 95° |
| 2026-04-24 07:17 | 48.84601 | 10.21530 | 20515 ft | 400 kts | 95° |
| 2026-04-24 07:18 | 48.84259 | 10.25740 | 21040 ft | 403 kts | 95° |
| 2026-04-24 07:18 | 48.83914 | 10.29981 | 21546 ft | 406 kts | 95° |
| 2026-04-24 07:18 | 48.83566 | 10.34251 | 22039 ft | 409 kts | 95° |
| 2026-04-24 07:18 | 48.82938 | 10.38491 | 22511 ft | 415 kts | 106° |
| 2026-04-24 07:19 | 48.81790 | 10.42545 | 22980 ft | 422 kts | 116° |
| 2026-04-24 07:19 | 48.80147 | 10.46264 | 23435 ft | 428 kts | 127° |
| 2026-04-24 07:19 | 48.78117 | 10.49601 | 23863 ft | 432 kts | 131° |
| 2026-04-24 07:19 | 48.76035 | 10.52911 | 24243 ft | 435 kts | 131° |
| 2026-04-24 07:20 | 48.73945 | 10.56247 | 24584 ft | 438 kts | 130° |
| 2026-04-24 07:20 | 48.71844 | 10.59608 | 24929 ft | 440 kts | 130° |
| 2026-04-24 07:20 | 48.69732 | 10.62984 | 25295 ft | 443 kts | 130° |
| 2026-04-24 07:20 | 48.67608 | 10.66372 | 25645 ft | 445 kts | 131° |
| 2026-04-24 07:21 | 48.65468 | 10.69779 | 25991 ft | 447 kts | 131° |
| 2026-04-24 07:21 | 48.63332 | 10.73189 | 26329 ft | 448 kts | 129° |
| 2026-04-24 07:21 | 48.61443 | 10.76919 | 26654 ft | 446 kts | 119° |
| 2026-04-24 07:21 | 48.60004 | 10.81059 | 26983 ft | 445 kts | 109° |
| 2026-04-24 07:22 | 48.59049 | 10.85486 | 27307 ft | 443 kts | 100° |
| 2026-04-24 07:22 | 48.58586 | 10.90072 | 27617 ft | 441 kts | 90° |
| 2026-04-24 07:22 | 48.58460 | 10.94701 | 27927 ft | 442 kts | 89° |
| 2026-04-24 07:22 | 48.58341 | 10.99352 | 28230 ft | 444 kts | 89° |
| 2026-04-24 07:23 | 48.58214 | 11.04022 | 28526 ft | 446 kts | 89° |
| 2026-04-24 07:23 | 48.58079 | 11.08711 | 28809 ft | 448 kts | 89° |
| 2026-04-24 07:23 | 48.57939 | 11.13419 | 29078 ft | 450 kts | 89° |
| 2026-04-24 07:23 | 48.57818 | 11.18082 | 29340 ft | 451 kts | 89° |
| 2026-04-24 07:24 | 48.57724 | 11.22824 | 29591 ft | 452 kts | 89° |
| 2026-04-24 07:24 | 48.57649 | 11.27580 | 29845 ft | 453 kts | 88° |
| 2026-04-24 07:24 | 48.57577 | 11.32334 | 30195 ft | 452 kts | 88° |
| 2026-04-24 07:24 | 48.57501 | 11.37073 | 30525 ft | 451 kts | 88° |
| 2026-04-24 07:25 | 48.57413 | 11.41799 | 30843 ft | 450 kts | 88° |
| 2026-04-24 07:25 | 48.57315 | 11.46513 | 31129 ft | 449 kts | 88° |
| 2026-04-24 07:25 | 48.57108 | 11.55943 | 31216 ft | 444 kts | 88° |
| 2026-04-24 07:26 | 48.56255 | 11.65142 | 31214 ft | 448 kts | 99° |
| 2026-04-24 07:26 | 48.54917 | 11.74334 | 31208 ft | 448 kts | 99° |
| 2026-04-24 07:27 | 48.53564 | 11.83511 | 31202 ft | 447 kts | 98° |
| 2026-04-24 07:27 | 48.52211 | 11.92655 | 31200 ft | 447 kts | 98° |
| 2026-04-24 07:28 | 48.51087 | 12.00264 | 31209 ft | 447 kts | 98° |
| 2026-04-24 07:28 | 48.49729 | 12.09404 | 31207 ft | 447 kts | 98° |
| 2026-04-24 07:29 | 48.48358 | 12.18536 | 31217 ft | 446 kts | 98° |
| 2026-04-24 07:29 | 48.46977 | 12.27652 | 31209 ft | 446 kts | 98° |
| 2026-04-24 07:30 | 48.45598 | 12.36765 | 31207 ft | 446 kts | 98° |
| 2026-04-24 07:30 | 48.44205 | 12.45871 | 31204 ft | 446 kts | 98° |
| 2026-04-24 07:31 | 48.42810 | 12.54967 | 31199 ft | 446 kts | 98° |
| 2026-04-24 07:31 | 48.41411 | 12.64049 | 31197 ft | 446 kts | 98° |
| 2026-04-24 07:32 | 48.40060 | 12.73151 | 31192 ft | 443 kts | 94° |
| 2026-04-24 07:32 | 48.39934 | 12.82300 | 31190 ft | 436 kts | 83° |
| 2026-04-24 07:33 | 48.40222 | 12.91405 | 31189 ft | 436 kts | 83° |
| 2026-04-24 07:33 | 48.40496 | 13.00524 | 31192 ft | 436 kts | 83° |
| 2026-04-24 07:34 | 48.40749 | 13.09644 | 31199 ft | 436 kts | 83° |
| 2026-04-24 07:34 | 48.40994 | 13.18761 | 31197 ft | 436 kts | 83° |
| 2026-04-24 07:35 | 48.41238 | 13.27814 | 31191 ft | 436 kts | 83° |
| 2026-04-24 07:35 | 48.41557 | 13.36906 | 31189 ft | 434 kts | 81° |
| 2026-04-24 07:36 | 48.42117 | 13.45947 | 31189 ft | 433 kts | 80° |
| 2026-04-24 07:36 | 48.42719 | 13.54967 | 31201 ft | 433 kts | 80° |
| 2026-04-24 07:37 | 48.43265 | 13.63999 | 31191 ft | 433 kts | 81° |
| 2026-04-24 07:37 | 48.43762 | 13.73037 | 31189 ft | 433 kts | 81° |
| 2026-04-24 07:38 | 48.44249 | 13.82075 | 31180 ft | 433 kts | 81° |
| 2026-04-24 07:38 | 48.44740 | 13.91103 | 31180 ft | 433 kts | 81° |
| 2026-04-24 07:39 | 48.45231 | 14.00137 | 31174 ft | 433 kts | 81° |
| 2026-04-24 07:39 | 48.45718 | 14.09179 | 31173 ft | 433 kts | 81° |
| 2026-04-24 07:40 | 48.46195 | 14.18241 | 31167 ft | 434 kts | 81° |
| 2026-04-24 07:40 | 48.46657 | 14.27313 | 31164 ft | 434 kts | 81° |
| 2026-04-24 07:41 | 48.47116 | 14.36391 | 31160 ft | 435 kts | 81° |
| 2026-04-24 07:41 | 48.47343 | 14.40934 | 31040 ft | 436 kts | 81° |
| 2026-04-24 07:41 | 48.47568 | 14.45491 | 30799 ft | 436 kts | 82° |
| 2026-04-24 07:42 | 48.47790 | 14.50058 | 30545 ft | 437 kts | 82° |
| 2026-04-24 07:42 | 48.48013 | 14.54630 | 30294 ft | 437 kts | 82° |
| 2026-04-24 07:42 | 48.48239 | 14.59220 | 29150 ft | 441 kts | 82° |
| 2026-04-24 07:42 | 48.48466 | 14.63859 | 27981 ft | 446 kts | 82° |
| 2026-04-24 07:43 | 48.48682 | 14.68414 | 27416 ft | 437 kts | 83° |
| 2026-04-24 07:43 | 48.48896 | 14.73013 | 26711 ft | 432 kts | 83° |
| 2026-04-24 07:43 | 48.49106 | 14.77495 | 26034 ft | 428 kts | 83° |
| 2026-04-24 07:43 | 48.49312 | 14.81889 | 25384 ft | 424 kts | 83° |
| 2026-04-24 07:44 | 48.49516 | 14.86305 | 24725 ft | 421 kts | 83° |
| 2026-04-24 07:44 | 48.49717 | 14.90700 | 24076 ft | 418 kts | 84° |
| 2026-04-24 07:44 | 48.49916 | 14.95063 | 23382 ft | 416 kts | 84° |
| 2026-04-24 07:44 | 48.50111 | 14.99395 | 22757 ft | 412 kts | 84° |
| 2026-04-24 07:45 | 48.50302 | 15.03683 | 22163 ft | 407 kts | 83° |
| 2026-04-24 07:45 | 48.50488 | 15.07924 | 21597 ft | 403 kts | 83° |
| 2026-04-24 07:45 | 48.50671 | 15.12112 | 21044 ft | 399 kts | 83° |
| 2026-04-24 07:45 | 48.50853 | 15.16268 | 20527 ft | 395 kts | 83° |
| 2026-04-24 07:46 | 48.51032 | 15.20390 | 20003 ft | 392 kts | 83° |
| 2026-04-24 07:46 | 48.51205 | 15.24477 | 19513 ft | 389 kts | 82° |
| 2026-04-24 07:46 | 48.51374 | 15.28537 | 19014 ft | 386 kts | 82° |
| 2026-04-24 07:46 | 48.51540 | 15.32567 | 18544 ft | 384 kts | 82° |
| 2026-04-24 07:47 | 48.51704 | 15.36564 | 18022 ft | 381 kts | 82° |
| 2026-04-24 07:47 | 48.51869 | 15.40536 | 17536 ft | 377 kts | 82° |
| 2026-04-24 07:47 | 48.51966 | 15.44478 | 17051 ft | 376 kts | 88° |
| 2026-04-24 07:47 | 48.51759 | 15.48467 | 16907 ft | 387 kts | 90° |
| 2026-04-24 07:48 | 48.51534 | 15.52526 | 16740 ft | 389 kts | 90° |
| 2026-04-24 07:48 | 48.51309 | 15.56592 | 16552 ft | 389 kts | 90° |
| 2026-04-24 07:48 | 48.51081 | 15.60643 | 16365 ft | 388 kts | 90° |
| 2026-04-24 07:48 | 48.50852 | 15.64693 | 16180 ft | 387 kts | 90° |
| 2026-04-24 07:49 | 48.50620 | 15.68735 | 15995 ft | 387 kts | 91° |
| 2026-04-24 07:49 | 48.50383 | 15.72769 | 15813 ft | 386 kts | 91° |
| 2026-04-24 07:49 | 48.50145 | 15.76799 | 15632 ft | 384 kts | 91° |
| 2026-04-24 07:49 | 48.49908 | 15.80795 | 15452 ft | 384 kts | 91° |
| 2026-04-24 07:50 | 48.49672 | 15.84809 | 15252 ft | 383 kts | 91° |
| 2026-04-24 07:50 | 48.49437 | 15.88797 | 15079 ft | 382 kts | 91° |
| 2026-04-24 07:50 | 48.49201 | 15.92786 | 14897 ft | 382 kts | 91° |
| 2026-04-24 07:50 | 48.48963 | 15.96731 | 14719 ft | 381 kts | 91° |
| 2026-04-24 07:51 | 48.48721 | 16.00719 | 14537 ft | 380 kts | 91° |
| 2026-04-24 07:51 | 48.48476 | 16.04687 | 14351 ft | 380 kts | 91° |
| 2026-04-24 07:51 | 48.48231 | 16.08638 | 14169 ft | 379 kts | 91° |
| 2026-04-24 07:51 | 48.48005 | 16.12600 | 13983 ft | 378 kts | 90° |
| 2026-04-24 07:52 | 48.47835 | 16.16537 | 13724 ft | 373 kts | 89° |
| 2026-04-24 07:52 | 48.47698 | 16.20376 | 13465 ft | 362 kts | 88° |
| 2026-04-24 07:52 | 48.47572 | 16.24114 | 13202 ft | 352 kts | 88° |
| 2026-04-24 07:52 | 48.47443 | 16.27750 | 12937 ft | 343 kts | 88° |
| 2026-04-24 07:53 | 48.47313 | 16.31294 | 12681 ft | 335 kts | 88° |
| 2026-04-24 07:53 | 48.47182 | 16.34755 | 12456 ft | 326 kts | 88° |
| 2026-04-24 07:53 | 48.47048 | 16.38108 | 12326 ft | 316 kts | 88° |
| 2026-04-24 07:53 | 48.46915 | 16.41360 | 12186 ft | 305 kts | 88° |
| 2026-04-24 07:54 | 48.46784 | 16.44514 | 11964 ft | 299 kts | 88° |
| 2026-04-24 07:54 | 48.46553 | 16.47570 | 11719 ft | 298 kts | 97° |
| 2026-04-24 07:54 | 48.45931 | 16.50548 | 11467 ft | 298 kts | 109° |
| 2026-04-24 07:54 | 48.44920 | 16.53273 | 11227 ft | 298 kts | 122° |
| 2026-04-24 07:55 | 48.43565 | 16.55626 | 10977 ft | 297 kts | 135° |
| 2026-04-24 07:55 | 48.41933 | 16.57514 | 10737 ft | 295 kts | 147° |
| 2026-04-24 07:55 | 48.40106 | 16.58868 | 10515 ft | 291 kts | 160° |
| 2026-04-24 07:55 | 48.38187 | 16.59728 | 10285 ft | 285 kts | 165° |
| 2026-04-24 07:56 | 48.36291 | 16.60522 | 10041 ft | 280 kts | 165° |
| 2026-04-24 07:56 | 48.34434 | 16.61307 | 9851 ft | 273 kts | 165° |
| 2026-04-24 07:56 | 48.32638 | 16.62065 | 9711 ft | 263 kts | 165° |
| 2026-04-24 07:56 | 48.30904 | 16.62796 | 9572 ft | 254 kts | 165° |
| 2026-04-24 07:57 | 48.29227 | 16.63502 | 9422 ft | 248 kts | 165° |
| 2026-04-24 07:57 | 48.27566 | 16.64199 | 9300 ft | 247 kts | 165° |
| 2026-04-24 07:57 | 48.25914 | 16.64890 | 9173 ft | 246 kts | 165° |
| 2026-04-24 07:57 | 48.24265 | 16.65580 | 9037 ft | 246 kts | 165° |
| 2026-04-24 07:58 | 48.22618 | 16.66269 | 8914 ft | 245 kts | 165° |
| 2026-04-24 07:58 | 48.20975 | 16.66958 | 8780 ft | 245 kts | 165° |
| 2026-04-24 07:58 | 48.19336 | 16.67649 | 8651 ft | 244 kts | 165° |
| 2026-04-24 07:58 | 48.17701 | 16.68339 | 8523 ft | 244 kts | 165° |
| 2026-04-24 07:59 | 48.16009 | 16.69047 | 8401 ft | 261 kts | 165° |
| 2026-04-24 07:59 | 48.14245 | 16.69783 | 8274 ft | 265 kts | 166° |
| 2026-04-24 07:59 | 48.12468 | 16.70522 | 8146 ft | 265 kts | 166° |
| 2026-04-24 07:59 | 48.10691 | 16.71263 | 8021 ft | 265 kts | 166° |
| 2026-04-24 08:00 | 48.08917 | 16.72000 | 7890 ft | 264 kts | 166° |
| 2026-04-24 08:00 | 48.07144 | 16.72735 | 7756 ft | 264 kts | 166° |
| 2026-04-24 08:00 | 48.05379 | 16.73469 | 7622 ft | 263 kts | 166° |
| 2026-04-24 08:00 | 48.03619 | 16.74201 | 7505 ft | 262 kts | 166° |
| 2026-04-24 08:01 | 48.01865 | 16.74931 | 7381 ft | 261 kts | 166° |
| 2026-04-24 08:01 | 48.00115 | 16.75661 | 7255 ft | 261 kts | 167° |
| 2026-04-24 08:01 | 47.98366 | 16.76388 | 7138 ft | 260 kts | 167° |
| 2026-04-24 08:01 | 47.96623 | 16.77109 | 7010 ft | 260 kts | 166° |
| 2026-04-24 08:02 | 47.94877 | 16.77831 | 6883 ft | 260 kts | 167° |
| 2026-04-24 08:02 | 47.93131 | 16.78553 | 6760 ft | 260 kts | 167° |
| 2026-04-24 08:02 | 47.91412 | 16.79266 | 6641 ft | 252 kts | 167° |
| 2026-04-24 08:02 | 47.89742 | 16.79759 | 6498 ft | 237 kts | 186° |
| 2026-04-24 08:03 | 47.88213 | 16.79321 | 6382 ft | 221 kts | 211° |
| 2026-04-24 08:03 | 47.86977 | 16.78094 | 6250 ft | 208 kts | 234° |
| 2026-04-24 08:03 | 47.86178 | 16.76380 | 6118 ft | 198 kts | 255° |
| 2026-04-24 08:03 | 47.85780 | 16.74458 | 5999 ft | 194 kts | 262° |
| 2026-04-24 08:04 | 47.85424 | 16.72521 | 5837 ft | 194 kts | 263° |
| 2026-04-24 08:04 | 47.85389 | 16.70602 | 5573 ft | 180 kts | 292° |
| 2026-04-24 08:04 | 47.86011 | 16.69061 | 5318 ft | 173 kts | 320° |
| 2026-04-24 08:04 | 47.87108 | 16.68402 | 5090 ft | 174 kts | 343° |
| 2026-04-24 08:05 | 47.88261 | 16.67876 | 4843 ft | 174 kts | 340° |
| 2026-04-24 08:05 | 47.89418 | 16.67341 | 4594 ft | 174 kts | 341° |
| 2026-04-24 08:05 | 47.90583 | 16.66835 | 4345 ft | 175 kts | 342° |
| 2026-04-24 08:05 | 47.91756 | 16.66337 | 4112 ft | 176 kts | 343° |
| 2026-04-24 08:06 | 47.92932 | 16.65841 | 3870 ft | 176 kts | 343° |
| 2026-04-24 08:06 | 47.94092 | 16.65354 | 3659 ft | 170 kts | 343° |
| 2026-04-24 08:06 | 47.95215 | 16.64883 | 3414 ft | 165 kts | 343° |
| 2026-04-24 08:06 | 47.96285 | 16.64433 | 3184 ft | 152 kts | 343° |
| 2026-04-24 08:07 | 47.97263 | 16.64023 | 2952 ft | 141 kts | 343° |
| 2026-04-24 08:07 | 47.98187 | 16.63639 | 2794 ft | 136 kts | 342° |
| 2026-04-24 08:07 | 47.99088 | 16.63249 | 2621 ft | 134 kts | 343° |
| 2026-04-24 08:07 | 47.99986 | 16.62885 | 2379 ft | 133 kts | 343° |
| 2026-04-24 08:08 | 48.00872 | 16.62524 | 2263 ft | 134 kts | 342° |
| 2026-04-24 08:08 | 48.01763 | 16.62153 | 2071 ft | 132 kts | 341° |
| 2026-04-24 08:08 | 48.02645 | 16.61767 | 1901 ft | 132 kts | 342° |
| 2026-04-24 08:09 | 48.04395 | 16.61029 | 1524 ft | 131 kts | 344° |
| 2026-04-24 08:09 | 48.05270 | 16.60661 | 1342 ft | 130 kts | 343° |
| 2026-04-24 08:09 | 48.06144 | 16.60293 | 1179 ft | 132 kts | 342° |
| 2026-04-24 08:09 | 48.07018 | 16.59929 | 1017 ft | 132 kts | 342° |
| 2026-04-24 08:10 | 48.07880 | 16.59561 | 845 ft | 129 kts | 342° |
| 2026-04-24 08:10 | 48.08745 | 16.59188 | 686 ft | 129 kts | 343° |
| 2026-04-24 08:10 | 48.09596 | 16.58822 | 629 ft | 119 kts | 344° |
| 2026-04-24 08:10 | 48.10242 | 16.58550 | 612 ft | 72 kts | 344° |
| 2026-04-24 08:11 | 48.10578 | 16.58411 | 608 ft | 33 kts | 344° |
| 2026-04-24 08:11 | 48.10749 | 16.58245 | 610 ft | 28 kts | 315° |
| 2026-04-24 08:11 | 48.10829 | 16.58129 | 611 ft | 11 kts | 313° |
| 2026-04-24 08:11 | 48.10879 | 16.58049 | 609 ft | 9 kts | 314° |
| 2026-04-24 08:12 | 48.10928 | 16.57976 | 617 ft | 10 kts | 315° |
| 2026-04-24 08:12 | 48.10976 | 16.57905 | 618 ft | 10 kts | 315° |
| 2026-04-24 08:12 | 48.11035 | 16.57815 | 618 ft | 13 kts | 316° |
| 2026-04-24 08:12 | 48.11125 | 16.57753 | 614 ft | 15 kts | 327° |
| 2026-04-24 08:13 | 48.11188 | 16.57623 | 624 ft | 16 kts | 296° |
| 2026-04-24 08:13 | 48.11240 | 16.57465 | 622 ft | 17 kts | 296° |
| 2026-04-24 08:13 | 48.11293 | 16.57301 | 627 ft | 18 kts | 295° |
| 2026-04-24 08:13 | 48.11352 | 16.57123 | 619 ft | 20 kts | 296° |
| 2026-04-24 08:14 | 48.11413 | 16.56934 | 617 ft | 20 kts | 297° |
| 2026-04-24 08:14 | 48.11486 | 16.56884 | 620 ft | 15 kts | 22° |
| 2026-04-24 08:14 | 48.11587 | 16.56881 | 623 ft | 14 kts | 312° |
| 2026-04-24 08:14 | 48.11629 | 16.56773 | 610 ft | 12 kts | 316° |
| 2026-04-24 08:15 | 48.11708 | 16.56805 | 603 ft | 8 kts | 27° |
| 2026-04-24 08:15 | 48.11713 | 16.56809 | 603 ft | 0 kts | 27° |
| 2026-04-24 08:16 | 48.11713 | 16.56810 | 603 ft | 0 kts | 28° |